SVR873 UUEE-ULLI
Flight info
| Callsign | SVR873 |
|---|---|
| Flight time | 1h 4m |
| Altitude | 36000 |
| Route | TOKNU3F TOKNU L4 NUDKO T561 ODATI T875 GENPA GENPA1B |
| Aircraft | A320/M-SDE3FGHIRWY/LB1 |
Departure
| Time | 2026-05-01 13:33 |
|---|---|
| Airport | Sheremetyevo International Airport (UUEE) |
Arrival
| Time | 2026-05-01 14:37 |
|---|---|
| Airport | Pulkovo Airport (ULLI) |
| Time | Latitude | Longitude | Altitude | Speed | Heading |
|---|---|---|---|---|---|
| 2026-05-01 13:01 | 55.97798 | 37.41813 | 639 ft | 0 kts | 345° |
| 2026-05-01 13:10 | 55.97794 | 37.41814 | 639 ft | 2 kts | 345° |
| 2026-05-01 13:10 | 55.97779 | 37.41822 | 640 ft | 2 kts | 345° |
| 2026-05-01 13:10 | 55.97763 | 37.41829 | 641 ft | 2 kts | 330° |
| 2026-05-01 13:10 | 55.97749 | 37.41846 | 645 ft | 2 kts | 322° |
| 2026-05-01 13:11 | 55.97736 | 37.41864 | 639 ft | 2 kts | 308° |
| 2026-05-01 13:11 | 55.97728 | 37.41890 | 640 ft | 2 kts | 274° |
| 2026-05-01 13:11 | 55.97728 | 37.41896 | 640 ft | 0 kts | 272° |
| 2026-05-01 13:14 | 55.97725 | 37.41852 | 643 ft | 8 kts | 257° |
| 2026-05-01 13:14 | 55.97712 | 37.41759 | 639 ft | 6 kts | 255° |
| 2026-05-01 13:15 | 55.97705 | 37.41717 | 639 ft | 1 kts | 254° |
| 2026-05-01 13:15 | 55.97704 | 37.41710 | 645 ft | 4 kts | 254° |
| 2026-05-01 13:15 | 55.97693 | 37.41641 | 639 ft | 7 kts | 248° |
| 2026-05-01 13:15 | 55.97636 | 37.41603 | 643 ft | 17 kts | 161° |
| 2026-05-01 13:16 | 55.97591 | 37.41507 | 639 ft | 7 kts | 259° |
| 2026-05-01 13:16 | 55.97566 | 37.41371 | 641 ft | 10 kts | 252° |
| 2026-05-01 13:16 | 55.97560 | 37.41337 | 644 ft | 0 kts | 252° |
| 2026-05-01 13:19 | 55.97560 | 37.41335 | 644 ft | 0 kts | 252° |
| 2026-05-01 13:19 | 55.97557 | 37.41319 | 645 ft | 1 kts | 251° |
| 2026-05-01 13:20 | 55.97557 | 37.41318 | 645 ft | 0 kts | 251° |
| 2026-05-01 13:22 | 55.97556 | 37.41314 | 644 ft | 2 kts | 252° |
| 2026-05-01 13:22 | 55.97545 | 37.41255 | 644 ft | 6 kts | 252° |
| 2026-05-01 13:22 | 55.97533 | 37.41186 | 639 ft | 6 kts | 254° |
| 2026-05-01 13:22 | 55.97518 | 37.41078 | 639 ft | 15 kts | 257° |
| 2026-05-01 13:23 | 55.97475 | 37.40785 | 639 ft | 32 kts | 255° |
| 2026-05-01 13:23 | 55.97419 | 37.40398 | 640 ft | 32 kts | 256° |
| 2026-05-01 13:23 | 55.97358 | 37.40009 | 647 ft | 33 kts | 254° |
| 2026-05-01 13:23 | 55.97301 | 37.39615 | 647 ft | 33 kts | 255° |
| 2026-05-01 13:24 | 55.97243 | 37.39223 | 642 ft | 29 kts | 255° |
| 2026-05-01 13:24 | 55.97261 | 37.39112 | 643 ft | 8 kts | 350° |
| 2026-05-01 13:24 | 55.97310 | 37.39107 | 640 ft | 6 kts | 13° |
| 2026-05-01 13:25 | 55.97357 | 37.39325 | 639 ft | 13 kts | 76° |
| 2026-05-01 13:25 | 55.97385 | 37.39526 | 639 ft | 21 kts | 76° |
| 2026-05-01 13:25 | 55.97424 | 37.39785 | 642 ft | 15 kts | 86° |
| 2026-05-01 13:25 | 55.97361 | 37.39906 | 643 ft | 13 kts | 121° |
| 2026-05-01 13:26 | 55.97366 | 37.40059 | 639 ft | 13 kts | 74° |
| 2026-05-01 13:26 | 55.97396 | 37.40255 | 643 ft | 20 kts | 75° |
| 2026-05-01 13:26 | 55.97438 | 37.40535 | 647 ft | 26 kts | 75° |
| 2026-05-01 13:26 | 55.97491 | 37.40880 | 639 ft | 30 kts | 75° |
| 2026-05-01 13:27 | 55.97545 | 37.41237 | 641 ft | 30 kts | 75° |
| 2026-05-01 13:27 | 55.97599 | 37.41591 | 639 ft | 30 kts | 75° |
| 2026-05-01 13:27 | 55.97702 | 37.42301 | 640 ft | 29 kts | 75° |
| 2026-05-01 13:28 | 55.97808 | 37.43009 | 642 ft | 29 kts | 75° |
| 2026-05-01 13:28 | 55.97861 | 37.43361 | 639 ft | 29 kts | 75° |
| 2026-05-01 13:29 | 55.97950 | 37.43960 | 647 ft | 10 kts | 80° |
| 2026-05-01 13:29 | 55.97907 | 37.44044 | 639 ft | 0 kts | 167° |
| 2026-05-01 13:30 | 55.97660 | 37.44158 | 639 ft | 0 kts | 164° |
| 2026-05-01 13:31 | 55.97532 | 37.44174 | 642 ft | 12 kts | 224° |
| 2026-05-01 13:31 | 55.97514 | 37.43992 | 642 ft | 18 kts | 253° |
| 2026-05-01 13:32 | 55.97196 | 37.41852 | 641 ft | 148 kts | 255° |
| 2026-05-01 13:33 | 55.96200 | 37.35193 | 2023 ft | 200 kts | 257° |
| 2026-05-01 13:33 | 55.95403 | 37.29848 | 2923 ft | 245 kts | 256° |
| 2026-05-01 13:34 | 55.94529 | 37.24085 | 4588 ft | 256 kts | 256° |
| 2026-05-01 13:34 | 55.93592 | 37.17883 | 6386 ft | 263 kts | 256° |
| 2026-05-01 13:35 | 55.92623 | 37.11500 | 8019 ft | 271 kts | 257° |
| 2026-05-01 13:35 | 55.92126 | 37.08222 | 8833 ft | 276 kts | 257° |
| 2026-05-01 13:35 | 55.92098 | 37.01513 | 10361 ft | 279 kts | 292° |
| 2026-05-01 13:36 | 55.93051 | 36.98518 | 11064 ft | 279 kts | 313° |
| 2026-05-01 13:36 | 55.94515 | 36.96271 | 11783 ft | 279 kts | 328° |
| 2026-05-01 13:36 | 55.97740 | 36.92300 | 13303 ft | 284 kts | 329° |
| 2026-05-01 13:37 | 55.99412 | 36.90402 | 14041 ft | 284 kts | 338° |
| 2026-05-01 13:37 | 56.01289 | 36.89079 | 14342 ft | 298 kts | 345° |
| 2026-05-01 13:37 | 56.03293 | 36.87893 | 14827 ft | 306 kts | 345° |
| 2026-05-01 13:37 | 56.05327 | 36.86693 | 15453 ft | 310 kts | 345° |
| 2026-05-01 13:38 | 56.09305 | 36.83472 | 16739 ft | 323 kts | 328° |
| 2026-05-01 13:38 | 56.11008 | 36.80797 | 17384 ft | 329 kts | 322° |
| 2026-05-01 13:38 | 56.12693 | 36.77966 | 18030 ft | 332 kts | 322° |
| 2026-05-01 13:39 | 56.14384 | 36.75120 | 18649 ft | 335 kts | 322° |
| 2026-05-01 13:39 | 56.16094 | 36.72244 | 19183 ft | 338 kts | 322° |
| 2026-05-01 13:39 | 56.17811 | 36.69360 | 19729 ft | 340 kts | 323° |
| 2026-05-01 13:39 | 56.19547 | 36.66450 | 20276 ft | 343 kts | 323° |
| 2026-05-01 13:40 | 56.21299 | 36.63513 | 20826 ft | 345 kts | 323° |
| 2026-05-01 13:40 | 56.23067 | 36.60553 | 21213 ft | 353 kts | 323° |
| 2026-05-01 13:40 | 56.24902 | 36.57484 | 21337 ft | 367 kts | 323° |
| 2026-05-01 13:40 | 56.26806 | 36.54284 | 21474 ft | 381 kts | 323° |
| 2026-05-01 13:41 | 56.28769 | 36.50971 | 21610 ft | 393 kts | 323° |
| 2026-05-01 13:41 | 56.30792 | 36.47543 | 21742 ft | 404 kts | 322° |
| 2026-05-01 13:41 | 56.32859 | 36.44030 | 21875 ft | 414 kts | 322° |
| 2026-05-01 13:41 | 56.34971 | 36.40436 | 22006 ft | 422 kts | 322° |
| 2026-05-01 13:42 | 56.36955 | 36.36425 | 22143 ft | 436 kts | 313° |
| 2026-05-01 13:42 | 56.38704 | 36.31977 | 22291 ft | 443 kts | 311° |
| 2026-05-01 13:42 | 56.40485 | 36.27420 | 22531 ft | 446 kts | 311° |
| 2026-05-01 13:42 | 56.42274 | 36.22838 | 22794 ft | 447 kts | 312° |
| 2026-05-01 13:43 | 56.44071 | 36.18244 | 23070 ft | 449 kts | 312° |
| 2026-05-01 13:43 | 56.45874 | 36.13622 | 23346 ft | 451 kts | 312° |
| 2026-05-01 13:43 | 56.47683 | 36.08972 | 23587 ft | 452 kts | 312° |
| 2026-05-01 13:43 | 56.49496 | 36.04309 | 23821 ft | 454 kts | 313° |
| 2026-05-01 13:44 | 56.51309 | 35.99641 | 24009 ft | 455 kts | 313° |
| 2026-05-01 13:44 | 56.53136 | 35.94944 | 24200 ft | 456 kts | 313° |
| 2026-05-01 13:44 | 56.54958 | 35.90231 | 24460 ft | 456 kts | 313° |
| 2026-05-01 13:44 | 56.56776 | 35.85526 | 24741 ft | 454 kts | 313° |
| 2026-05-01 13:45 | 56.58588 | 35.80829 | 25012 ft | 453 kts | 314° |
| 2026-05-01 13:45 | 56.60395 | 35.76146 | 25288 ft | 452 kts | 314° |
| 2026-05-01 13:45 | 56.62191 | 35.71474 | 25571 ft | 452 kts | 314° |
| 2026-05-01 13:45 | 56.63981 | 35.66786 | 25874 ft | 451 kts | 314° |
| 2026-05-01 13:46 | 56.65764 | 35.62101 | 26178 ft | 450 kts | 314° |
| 2026-05-01 13:46 | 56.67536 | 35.57427 | 26490 ft | 449 kts | 314° |
| 2026-05-01 13:46 | 56.69277 | 35.52818 | 26797 ft | 447 kts | 314° |
| 2026-05-01 13:46 | 56.71060 | 35.48097 | 27121 ft | 446 kts | 314° |
| 2026-05-01 13:47 | 56.72792 | 35.43514 | 27433 ft | 445 kts | 314° |
| 2026-05-01 13:47 | 56.74550 | 35.38875 | 27755 ft | 444 kts | 314° |
| 2026-05-01 13:47 | 56.76297 | 35.34249 | 28070 ft | 443 kts | 314° |
| 2026-05-01 13:47 | 56.78043 | 35.29616 | 28418 ft | 442 kts | 314° |
| 2026-05-01 13:48 | 56.79773 | 35.25013 | 28747 ft | 441 kts | 314° |
| 2026-05-01 13:48 | 56.81506 | 35.20384 | 29100 ft | 440 kts | 314° |
| 2026-05-01 13:48 | 56.83225 | 35.15781 | 29440 ft | 439 kts | 314° |
| 2026-05-01 13:48 | 56.84943 | 35.11180 | 29779 ft | 438 kts | 314° |
| 2026-05-01 13:49 | 56.86656 | 35.06593 | 30129 ft | 437 kts | 314° |
| 2026-05-01 13:49 | 56.88364 | 35.02007 | 30428 ft | 436 kts | 314° |
| 2026-05-01 13:49 | 56.90123 | 34.97528 | 30699 ft | 428 kts | 319° |
| 2026-05-01 13:49 | 56.92174 | 34.93687 | 30966 ft | 417 kts | 328° |
| 2026-05-01 13:50 | 56.94475 | 34.90567 | 31234 ft | 407 kts | 335° |
| 2026-05-01 13:50 | 56.96853 | 34.87740 | 31508 ft | 407 kts | 335° |
| 2026-05-01 13:50 | 56.99221 | 34.84914 | 31765 ft | 407 kts | 335° |
| 2026-05-01 13:50 | 57.01589 | 34.82078 | 32037 ft | 407 kts | 335° |
| 2026-05-01 13:51 | 57.03959 | 34.79234 | 32305 ft | 407 kts | 334° |
| 2026-05-01 13:51 | 57.06325 | 34.76391 | 32576 ft | 406 kts | 334° |
| 2026-05-01 13:51 | 57.08688 | 34.73542 | 32841 ft | 406 kts | 334° |
| 2026-05-01 13:51 | 57.11052 | 34.70701 | 33106 ft | 406 kts | 334° |
| 2026-05-01 13:52 | 57.13381 | 34.67899 | 33368 ft | 406 kts | 334° |
| 2026-05-01 13:52 | 57.15743 | 34.65052 | 33798 ft | 400 kts | 334° |
| 2026-05-01 13:52 | 57.18032 | 34.62280 | 34556 ft | 388 kts | 334° |
| 2026-05-01 13:52 | 57.20249 | 34.59581 | 35267 ft | 375 kts | 333° |
| 2026-05-01 13:53 | 57.22389 | 34.56966 | 35899 ft | 365 kts | 333° |
| 2026-05-01 13:53 | 57.26645 | 34.51793 | 36188 ft | 370 kts | 333° |
| 2026-05-01 13:53 | 57.28824 | 34.49160 | 36191 ft | 376 kts | 333° |
| 2026-05-01 13:54 | 57.33276 | 34.43766 | 36195 ft | 388 kts | 333° |
| 2026-05-01 13:54 | 57.37849 | 34.38164 | 36200 ft | 399 kts | 332° |
| 2026-05-01 13:55 | 57.42532 | 34.32395 | 36199 ft | 409 kts | 332° |
| 2026-05-01 13:55 | 57.47327 | 34.26484 | 36194 ft | 418 kts | 332° |
| 2026-05-01 13:56 | 57.52194 | 34.20455 | 36197 ft | 421 kts | 332° |
| 2026-05-01 13:56 | 57.57065 | 34.14410 | 36193 ft | 421 kts | 332° |
| 2026-05-01 13:57 | 57.61127 | 34.09365 | 36193 ft | 421 kts | 332° |
| 2026-05-01 13:57 | 57.66815 | 34.02288 | 36190 ft | 421 kts | 332° |
| 2026-05-01 13:58 | 57.71680 | 33.96201 | 36188 ft | 420 kts | 332° |
| 2026-05-01 13:58 | 57.76526 | 33.90063 | 36186 ft | 420 kts | 332° |
| 2026-05-01 13:59 | 57.81295 | 33.84014 | 36185 ft | 406 kts | 332° |
| 2026-05-01 13:59 | 57.83578 | 33.81103 | 36188 ft | 389 kts | 332° |
| 2026-05-01 13:59 | 57.85789 | 33.78290 | 36191 ft | 382 kts | 332° |
| 2026-05-01 14:00 | 57.90185 | 33.72355 | 36188 ft | 397 kts | 328° |
| 2026-05-01 14:00 | 57.94533 | 33.65705 | 36193 ft | 408 kts | 326° |
| 2026-05-01 14:01 | 57.98950 | 33.58778 | 36193 ft | 417 kts | 326° |
| 2026-05-01 14:01 | 58.03456 | 33.51819 | 36192 ft | 420 kts | 327° |
| 2026-05-01 14:02 | 58.07998 | 33.44855 | 36196 ft | 420 kts | 327° |
| 2026-05-01 14:02 | 58.12541 | 33.37893 | 36186 ft | 420 kts | 327° |
| 2026-05-01 14:03 | 58.17068 | 33.30921 | 36185 ft | 419 kts | 327° |
| 2026-05-01 14:03 | 58.21585 | 33.23925 | 36184 ft | 419 kts | 326° |
| 2026-05-01 14:04 | 58.26103 | 33.16902 | 36184 ft | 420 kts | 326° |
| 2026-05-01 14:04 | 58.29839 | 33.11078 | 36191 ft | 420 kts | 326° |
| 2026-05-01 14:05 | 58.35097 | 33.02868 | 36187 ft | 420 kts | 326° |
| 2026-05-01 14:05 | 58.39604 | 32.95819 | 36202 ft | 419 kts | 326° |
| 2026-05-01 14:06 | 58.44099 | 32.88753 | 35944 ft | 417 kts | 326° |
| 2026-05-01 14:06 | 58.46348 | 32.85208 | 35331 ft | 420 kts | 326° |
| 2026-05-01 14:06 | 58.48592 | 32.81661 | 34599 ft | 417 kts | 326° |
| 2026-05-01 14:07 | 58.50812 | 32.78140 | 33828 ft | 414 kts | 327° |
| 2026-05-01 14:07 | 58.53029 | 32.74620 | 33002 ft | 413 kts | 326° |
| 2026-05-01 14:07 | 58.55236 | 32.71110 | 32200 ft | 413 kts | 326° |
| 2026-05-01 14:08 | 58.59667 | 32.64067 | 30666 ft | 416 kts | 326° |
| 2026-05-01 14:08 | 58.61904 | 32.60508 | 29865 ft | 418 kts | 326° |
| 2026-05-01 14:08 | 58.64148 | 32.56930 | 29015 ft | 420 kts | 326° |
| 2026-05-01 14:08 | 58.65644 | 32.54541 | 28450 ft | 422 kts | 326° |
| 2026-05-01 14:09 | 58.68675 | 32.49688 | 27370 ft | 426 kts | 325° |
| 2026-05-01 14:09 | 58.70182 | 32.47268 | 26857 ft | 427 kts | 325° |
| 2026-05-01 14:09 | 58.72463 | 32.43588 | 26084 ft | 430 kts | 325° |
| 2026-05-01 14:09 | 58.74764 | 32.39867 | 25344 ft | 432 kts | 325° |
| 2026-05-01 14:10 | 58.77073 | 32.36137 | 24603 ft | 434 kts | 325° |
| 2026-05-01 14:10 | 58.79383 | 32.32400 | 23888 ft | 432 kts | 325° |
| 2026-05-01 14:10 | 58.81674 | 32.28683 | 23088 ft | 428 kts | 324° |
| 2026-05-01 14:10 | 58.83939 | 32.25003 | 22269 ft | 424 kts | 324° |
| 2026-05-01 14:11 | 58.86183 | 32.21345 | 21479 ft | 420 kts | 324° |
| 2026-05-01 14:11 | 58.90602 | 32.14143 | 19955 ft | 412 kts | 324° |
| 2026-05-01 14:11 | 58.92788 | 32.10571 | 19216 ft | 409 kts | 324° |
| 2026-05-01 14:12 | 58.94951 | 32.07032 | 18496 ft | 406 kts | 324° |
| 2026-05-01 14:12 | 58.97094 | 32.03515 | 17680 ft | 403 kts | 323° |
| 2026-05-01 14:12 | 58.99215 | 32.00029 | 16892 ft | 399 kts | 323° |
| 2026-05-01 14:12 | 59.01335 | 31.96541 | 16111 ft | 397 kts | 323° |
| 2026-05-01 14:13 | 59.03432 | 31.93088 | 15351 ft | 394 kts | 323° |
| 2026-05-01 14:13 | 59.05521 | 31.89645 | 14604 ft | 392 kts | 323° |
| 2026-05-01 14:13 | 59.07590 | 31.86225 | 13871 ft | 390 kts | 322° |
| 2026-05-01 14:13 | 59.09653 | 31.82809 | 13058 ft | 388 kts | 322° |
| 2026-05-01 14:14 | 59.11683 | 31.79371 | 12264 ft | 386 kts | 321° |
| 2026-05-01 14:14 | 59.13642 | 31.75811 | 11507 ft | 384 kts | 319° |
| 2026-05-01 14:14 | 59.15546 | 31.72182 | 10752 ft | 382 kts | 317° |
| 2026-05-01 14:14 | 59.17384 | 31.68591 | 10584 ft | 364 kts | 317° |
| 2026-05-01 14:15 | 59.19119 | 31.65181 | 10372 ft | 342 kts | 317° |
| 2026-05-01 14:15 | 59.20730 | 31.62037 | 10124 ft | 315 kts | 318° |
| 2026-05-01 14:15 | 59.22222 | 31.59151 | 9975 ft | 289 kts | 318° |
| 2026-05-01 14:15 | 59.23605 | 31.56496 | 9834 ft | 273 kts | 319° |
| 2026-05-01 14:16 | 59.24953 | 31.53929 | 9698 ft | 270 kts | 319° |
| 2026-05-01 14:16 | 59.26299 | 31.51371 | 9565 ft | 269 kts | 319° |
| 2026-05-01 14:16 | 59.27642 | 31.48819 | 9432 ft | 269 kts | 319° |
| 2026-05-01 14:16 | 59.28980 | 31.46270 | 9306 ft | 268 kts | 318° |
| 2026-05-01 14:17 | 59.30313 | 31.43720 | 9168 ft | 268 kts | 318° |
| 2026-05-01 14:17 | 59.31637 | 31.41174 | 9028 ft | 267 kts | 318° |
| 2026-05-01 14:17 | 59.32946 | 31.38652 | 8905 ft | 267 kts | 318° |
| 2026-05-01 14:17 | 59.34268 | 31.36111 | 8766 ft | 266 kts | 317° |
| 2026-05-01 14:18 | 59.35588 | 31.33566 | 8636 ft | 266 kts | 317° |
| 2026-05-01 14:18 | 59.36904 | 31.31022 | 8507 ft | 265 kts | 317° |
| 2026-05-01 14:18 | 59.38217 | 31.28485 | 8375 ft | 265 kts | 317° |
| 2026-05-01 14:18 | 59.39106 | 31.26769 | 8228 ft | 266 kts | 317° |
| 2026-05-01 14:19 | 59.40835 | 31.23424 | 7683 ft | 263 kts | 317° |
| 2026-05-01 14:19 | 59.42134 | 31.20909 | 7268 ft | 262 kts | 316° |
| 2026-05-01 14:19 | 59.43427 | 31.18399 | 6844 ft | 260 kts | 316° |
| 2026-05-01 14:19 | 59.44705 | 31.15911 | 6412 ft | 260 kts | 315° |
| 2026-05-01 14:20 | 59.45993 | 31.13392 | 5965 ft | 260 kts | 315° |
| 2026-05-01 14:20 | 59.48531 | 31.08429 | 5295 ft | 248 kts | 315° |
| 2026-05-01 14:20 | 59.49707 | 31.06140 | 5176 ft | 230 kts | 315° |
| 2026-05-01 14:21 | 59.50869 | 31.04016 | 5121 ft | 226 kts | 324° |
| 2026-05-01 14:21 | 59.52280 | 31.02670 | 5130 ft | 228 kts | 343° |
| 2026-05-01 14:21 | 59.53863 | 31.02370 | 5127 ft | 230 kts | 0° |
| 2026-05-01 14:22 | 59.57072 | 31.02590 | 5125 ft | 231 kts | 360° |
| 2026-05-01 14:22 | 59.58681 | 31.02769 | 5125 ft | 232 kts | 7° |
| 2026-05-01 14:22 | 59.60224 | 31.03713 | 5125 ft | 235 kts | 24° |
| 2026-05-01 14:22 | 59.61663 | 31.05230 | 5129 ft | 235 kts | 26° |
| 2026-05-01 14:23 | 59.63110 | 31.06756 | 5129 ft | 235 kts | 26° |
| 2026-05-01 14:23 | 59.64555 | 31.08277 | 5126 ft | 235 kts | 26° |
| 2026-05-01 14:23 | 59.65999 | 31.09796 | 5125 ft | 235 kts | 26° |
| 2026-05-01 14:23 | 59.67500 | 31.11018 | 5123 ft | 233 kts | 11° |
| 2026-05-01 14:24 | 59.69092 | 31.11461 | 5131 ft | 232 kts | 4° |
| 2026-05-01 14:24 | 59.70696 | 31.11779 | 5127 ft | 231 kts | 4° |
| 2026-05-01 14:24 | 59.72302 | 31.12102 | 5129 ft | 232 kts | 4° |
| 2026-05-01 14:24 | 59.73904 | 31.12427 | 5129 ft | 231 kts | 4° |
| 2026-05-01 14:25 | 59.75504 | 31.12720 | 5126 ft | 230 kts | 359° |
| 2026-05-01 14:25 | 59.77080 | 31.12346 | 5124 ft | 228 kts | 342° |
| 2026-05-01 14:25 | 59.78606 | 31.11450 | 5129 ft | 229 kts | 342° |
| 2026-05-01 14:25 | 59.80124 | 31.10510 | 5119 ft | 228 kts | 334° |
| 2026-05-01 14:26 | 59.81374 | 31.08669 | 5122 ft | 225 kts | 308° |
| 2026-05-01 14:26 | 59.82018 | 31.02844 | 5118 ft | 227 kts | 255° |
| 2026-05-01 14:26 | 59.81287 | 31.00103 | 4856 ft | 227 kts | 231° |
| 2026-05-01 14:27 | 59.80263 | 30.97830 | 4609 ft | 226 kts | 230° |
| 2026-05-01 14:27 | 59.79200 | 30.95504 | 4554 ft | 228 kts | 229° |
| 2026-05-01 14:27 | 59.78135 | 30.93169 | 4473 ft | 228 kts | 230° |
| 2026-05-01 14:28 | 59.76009 | 30.88504 | 4298 ft | 228 kts | 230° |
| 2026-05-01 14:28 | 59.74951 | 30.86177 | 4199 ft | 227 kts | 229° |
| 2026-05-01 14:28 | 59.73895 | 30.83855 | 4097 ft | 227 kts | 229° |
| 2026-05-01 14:28 | 59.72838 | 30.81534 | 4006 ft | 227 kts | 229° |
| 2026-05-01 14:29 | 59.71781 | 30.79215 | 3904 ft | 224 kts | 229° |
| 2026-05-01 14:29 | 59.70770 | 30.76997 | 3803 ft | 208 kts | 229° |
| 2026-05-01 14:30 | 59.68328 | 30.71097 | 3562 ft | 162 kts | 250° |
| 2026-05-01 14:30 | 59.68117 | 30.69060 | 3506 ft | 144 kts | 270° |
| 2026-05-01 14:30 | 59.68252 | 30.67140 | 3415 ft | 141 kts | 287° |
| 2026-05-01 14:31 | 59.69383 | 30.64092 | 3065 ft | 140 kts | 323° |
| 2026-05-01 14:31 | 59.70185 | 30.62999 | 2898 ft | 140 kts | 322° |
| 2026-05-01 14:31 | 59.70982 | 30.61891 | 2779 ft | 139 kts | 323° |
| 2026-05-01 14:31 | 59.71775 | 30.60786 | 2727 ft | 140 kts | 322° |
| 2026-05-01 14:32 | 59.72576 | 30.59670 | 2661 ft | 141 kts | 322° |
| 2026-05-01 14:32 | 59.73379 | 30.58550 | 2601 ft | 141 kts | 322° |
| 2026-05-01 14:32 | 59.74153 | 30.57409 | 2531 ft | 140 kts | 315° |
| 2026-05-01 14:32 | 59.74775 | 30.55915 | 2461 ft | 138 kts | 299° |
| 2026-05-01 14:33 | 59.75152 | 30.54211 | 2364 ft | 137 kts | 284° |
| 2026-05-01 14:33 | 59.75436 | 30.52419 | 2256 ft | 137 kts | 290° |
| 2026-05-01 14:33 | 59.75849 | 30.50720 | 2148 ft | 137 kts | 304° |
| 2026-05-01 14:33 | 59.76474 | 30.49290 | 2056 ft | 137 kts | 313° |
| 2026-05-01 14:34 | 59.77118 | 30.47889 | 1900 ft | 137 kts | 307° |
| 2026-05-01 14:34 | 59.77661 | 30.46338 | 1702 ft | 136 kts | 300° |
| 2026-05-01 14:34 | 59.77994 | 30.44599 | 1615 ft | 135 kts | 285° |
| 2026-05-01 14:34 | 59.78266 | 30.42806 | 1525 ft | 136 kts | 285° |
| 2026-05-01 14:35 | 59.78512 | 30.41001 | 1335 ft | 135 kts | 282° |
| 2026-05-01 14:35 | 59.78779 | 30.39207 | 1113 ft | 135 kts | 286° |
| 2026-05-01 14:35 | 59.79060 | 30.37424 | 871 ft | 135 kts | 287° |
| 2026-05-01 14:35 | 59.79323 | 30.35662 | 667 ft | 135 kts | 285° |
| 2026-05-01 14:36 | 59.79573 | 30.33838 | 466 ft | 135 kts | 286° |
| 2026-05-01 14:36 | 59.79854 | 30.32053 | 307 ft | 135 kts | 289° |
| 2026-05-01 14:36 | 59.80126 | 30.30269 | 137 ft | 135 kts | 287° |
| 2026-05-01 14:36 | 59.80369 | 30.28631 | 76 ft | 105 kts | 286° |
| 2026-05-01 14:37 | 59.80526 | 30.27569 | 70 ft | 55 kts | 285° |
| 2026-05-01 14:37 | 59.80587 | 30.27144 | 72 ft | 17 kts | 288° |
| 2026-05-01 14:37 | 59.80625 | 30.26907 | 67 ft | 18 kts | 287° |
| 2026-05-01 14:37 | 59.80630 | 30.26686 | 69 ft | 15 kts | 243° |
| 2026-05-01 14:38 | 59.80549 | 30.26606 | 73 ft | 8 kts | 198° |
| 2026-05-01 14:38 | 59.80543 | 30.26602 | 75 ft | 0 kts | 198° |
| 2026-05-01 14:38 | 59.80540 | 30.26600 | 75 ft | 3 kts | 198° |
| 2026-05-01 14:38 | 59.80479 | 30.26563 | 67 ft | 11 kts | 194° |
| 2026-05-01 14:39 | 59.80426 | 30.26647 | 72 ft | 8 kts | 96° |
| 2026-05-01 14:39 | 59.80405 | 30.26830 | 70 ft | 10 kts | 109° |
| 2026-05-01 14:39 | 59.80354 | 30.26846 | 70 ft | 14 kts | 195° |
| 2026-05-01 14:39 | 59.80252 | 30.26785 | 71 ft | 12 kts | 194° |
| 2026-05-01 14:40 | 59.80215 | 30.26867 | 71 ft | 8 kts | 105° |
| 2026-05-01 14:40 | 59.80211 | 30.26891 | 76 ft | 0 kts | 107° |